sensor_id;sensor_type;location;lat;lon;timestamp;P1;durP1;ratioP1;P2;durP2;ratioP2
351;SDS011;164;50.784;6.496;2023-09-30T00:01:16;3.00;;;2.47;;
351;SDS011;164;50.784;6.496;2023-09-30T00:03:44;3.75;;;2.88;;
351;SDS011;164;50.784;6.496;2023-09-30T00:06:11;4.30;;;2.85;;
351;SDS011;164;50.784;6.496;2023-09-30T00:08:38;3.75;;;2.90;;
351;SDS011;164;50.784;6.496;2023-09-30T00:11:07;3.50;;;2.70;;
351;SDS011;164;50.784;6.496;2023-09-30T00:13:36;9.68;;;3.15;;
351;SDS011;164;50.784;6.496;2023-09-30T00:16:03;4.45;;;3.83;;
351;SDS011;164;50.784;6.496;2023-09-30T00:18:31;5.43;;;2.47;;
351;SDS011;164;50.784;6.496;2023-09-30T00:20:58;4.82;;;2.88;;
351;SDS011;164;50.784;6.496;2023-09-30T00:23:25;3.42;;;2.38;;
351;SDS011;164;50.784;6.496;2023-09-30T00:25:53;4.00;;;3.65;;
351;SDS011;164;50.784;6.496;2023-09-30T00:28:20;6.80;;;4.18;;
351;SDS011;164;50.784;6.496;2023-09-30T00:30:49;3.15;;;2.80;;
351;SDS011;164;50.784;6.496;2023-09-30T00:33:17;5.05;;;3.10;;
351;SDS011;164;50.784;6.496;2023-09-30T00:35:44;4.45;;;3.40;;
351;SDS011;164;50.784;6.496;2023-09-30T00:38:11;4.10;;;2.28;;
351;SDS011;164;50.784;6.496;2023-09-30T00:40:39;3.88;;;2.97;;
351;SDS011;164;50.784;6.496;2023-09-30T00:43:07;5.10;;;2.80;;
351;SDS011;164;50.784;6.496;2023-09-30T00:45:44;2.25;;;2.05;;
351;SDS011;164;50.784;6.496;2023-09-30T00:48:12;3.63;;;2.40;;
351;SDS011;164;50.784;6.496;2023-09-30T00:50:40;3.45;;;2.13;;
351;SDS011;164;50.784;6.496;2023-09-30T00:53:07;3.42;;;1.67;;
351;SDS011;164;50.784;6.496;2023-09-30T00:55:35;2.72;;;1.90;;
351;SDS011;164;50.784;6.496;2023-09-30T00:58:03;3.97;;;2.72;;
351;SDS011;164;50.784;6.496;2023-09-30T01:00:31;2.90;;;2.17;;
351;SDS011;164;50.784;6.496;2023-09-30T01:02:58;3.30;;;2.10;;
351;SDS011;164;50.784;6.496;2023-09-30T01:05:30;3.00;;;2.22;;
351;SDS011;164;50.784;6.496;2023-09-30T01:07:57;4.80;;;1.90;;
351;SDS011;164;50.784;6.496;2023-09-30T01:10:24;3.65;;;2.33;;
351;SDS011;164;50.784;6.496;2023-09-30T01:12:52;2.90;;;2.42;;
351;SDS011;164;50.784;6.496;2023-09-30T01:15:19;4.88;;;2.45;;
351;SDS011;164;50.784;6.496;2023-09-30T01:17:47;2.63;;;1.92;;
351;SDS011;164;50.784;6.496;2023-09-30T01:20:14;4.50;;;2.22;;
351;SDS011;164;50.784;6.496;2023-09-30T01:22:48;2.08;;;1.70;;
351;SDS011;164;50.784;6.496;2023-09-30T01:25:15;2.47;;;1.92;;
351;SDS011;164;50.784;6.496;2023-09-30T01:27:42;1.92;;;1.60;;
351;SDS011;164;50.784;6.496;2023-09-30T01:30:10;3.28;;;1.80;;
351;SDS011;164;50.784;6.496;2023-09-30T01:32:38;1.90;;;1.30;;
351;SDS011;164;50.784;6.496;2023-09-30T01:35:06;2.72;;;1.20;;
351;SDS011;164;50.784;6.496;2023-09-30T01:37:33;5.28;;;2.88;;
351;SDS011;164;50.784;6.496;2023-09-30T01:40:02;2.50;;;1.70;;
351;SDS011;164;50.784;6.496;2023-09-30T01:42:33;3.35;;;1.90;;
351;SDS011;164;50.784;6.496;2023-09-30T01:45:00;3.40;;;2.17;;
351;SDS011;164;50.784;6.496;2023-09-30T01:47:27;3.17;;;2.05;;
351;SDS011;164;50.784;6.496;2023-09-30T01:49:54;2.10;;;1.83;;
351;SDS011;164;50.784;6.496;2023-09-30T01:52:21;3.38;;;2.20;;
351;SDS011;164;50.784;6.496;2023-09-30T01:54:49;3.75;;;1.77;;
351;SDS011;164;50.784;6.496;2023-09-30T01:57:18;3.65;;;2.70;;
351;SDS011;164;50.784;6.496;2023-09-30T01:59:45;2.67;;;2.42;;
351;SDS011;164;50.784;6.496;2023-09-30T02:02:13;4.05;;;2.80;;
351;SDS011;164;50.784;6.496;2023-09-30T02:04:40;5.97;;;2.97;;
351;SDS011;164;50.784;6.496;2023-09-30T02:07:08;3.53;;;3.15;;
351;SDS011;164;50.784;6.496;2023-09-30T02:09:36;3.13;;;2.22;;
351;SDS011;164;50.784;6.496;2023-09-30T02:12:03;3.75;;;2.60;;
351;SDS011;164;50.784;6.496;2023-09-30T02:14:34;4.95;;;2.95;;
351;SDS011;164;50.784;6.496;2023-09-30T02:17:02;4.13;;;2.70;;
351;SDS011;164;50.784;6.496;2023-09-30T02:19:29;3.85;;;2.90;;
351;SDS011;164;50.784;6.496;2023-09-30T02:21:59;3.45;;;2.83;;
351;SDS011;164;50.784;6.496;2023-09-30T02:24:26;4.43;;;3.17;;
351;SDS011;164;50.784;6.496;2023-09-30T02:26:53;3.45;;;2.55;;
351;SDS011;164;50.784;6.496;2023-09-30T02:29:20;5.80;;;3.45;;
351;SDS011;164;50.784;6.496;2023-09-30T02:31:49;4.57;;;3.45;;
351;SDS011;164;50.784;6.496;2023-09-30T02:34:16;7.60;;;3.75;;
351;SDS011;164;50.784;6.496;2023-09-30T02:36:43;4.03;;;3.25;;
351;SDS011;164;50.784;6.496;2023-09-30T02:39:11;5.45;;;3.78;;
351;SDS011;164;50.784;6.496;2023-09-30T02:41:43;5.10;;;4.15;;
351;SDS011;164;50.784;6.496;2023-09-30T02:44:10;4.28;;;3.38;;
351;SDS011;164;50.784;6.496;2023-09-30T02:46:38;4.35;;;3.80;;
351;SDS011;164;50.784;6.496;2023-09-30T02:49:06;3.65;;;3.50;;
351;SDS011;164;50.784;6.496;2023-09-30T02:51:34;4.82;;;3.50;;
351;SDS011;164;50.784;6.496;2023-09-30T02:54:01;5.32;;;3.88;;
351;SDS011;164;50.784;6.496;2023-09-30T02:56:29;6.88;;;3.40;;
351;SDS011;164;50.784;6.496;2023-09-30T02:58:56;6.65;;;4.53;;
351;SDS011;164;50.784;6.496;2023-09-30T03:01:24;5.07;;;3.38;;
351;SDS011;164;50.784;6.496;2023-09-30T03:03:52;4.68;;;3.65;;
351;SDS011;164;50.784;6.496;2023-09-30T03:06:21;6.10;;;3.47;;
351;SDS011;164;50.784;6.496;2023-09-30T03:08:48;5.28;;;3.85;;
351;SDS011;164;50.784;6.496;2023-09-30T03:11:17;5.05;;;3.70;;
351;SDS011;164;50.784;6.496;2023-09-30T03:13:45;6.05;;;4.10;;
351;SDS011;164;50.784;6.496;2023-09-30T03:16:13;4.65;;;3.28;;
351;SDS011;164;50.784;6.496;2023-09-30T03:18:40;5.70;;;3.97;;
351;SDS011;164;50.784;6.496;2023-09-30T03:21:12;3.58;;;3.35;;
351;SDS011;164;50.784;6.496;2023-09-30T03:23:41;5.57;;;3.85;;
351;SDS011;164;50.784;6.496;2023-09-30T03:26:09;6.85;;;3.47;;
351;SDS011;164;50.784;6.496;2023-09-30T03:28:36;5.07;;;3.90;;
351;SDS011;164;50.784;6.496;2023-09-30T03:31:04;5.85;;;4.63;;
351;SDS011;164;50.784;6.496;2023-09-30T03:33:31;5.72;;;4.47;;
351;SDS011;164;50.784;6.496;2023-09-30T03:35:58;6.15;;;4.53;;
351;SDS011;164;50.784;6.496;2023-09-30T03:38:26;7.57;;;4.28;;
351;SDS011;164;50.784;6.496;2023-09-30T03:40:55;6.28;;;5.07;;
351;SDS011;164;50.784;6.496;2023-09-30T03:43:24;6.10;;;4.68;;
351;SDS011;164;50.784;6.496;2023-09-30T03:45:52;5.20;;;4.13;;
351;SDS011;164;50.784;6.496;2023-09-30T03:48:20;5.90;;;3.90;;
351;SDS011;164;50.784;6.496;2023-09-30T03:50:47;6.88;;;5.25;;
351;SDS011;164;50.784;6.496;2023-09-30T03:53:14;4.65;;;4.13;;
351;SDS011;164;50.784;6.496;2023-09-30T03:55:42;5.88;;;4.28;;
351;SDS011;164;50.784;6.496;2023-09-30T03:58:10;8.07;;;6.05;;
351;SDS011;164;50.784;6.496;2023-09-30T04:00:38;5.60;;;4.30;;
351;SDS011;164;50.784;6.496;2023-09-30T04:03:06;4.97;;;3.95;;
351;SDS011;164;50.784;6.496;2023-09-30T04:05:33;7.70;;;5.20;;
351;SDS011;164;50.784;6.496;2023-09-30T04:08:02;6.70;;;5.35;;
351;SDS011;164;50.784;6.496;2023-09-30T04:10:30;5.72;;;4.38;;
351;SDS011;164;50.784;6.496;2023-09-30T04:12:57;8.85;;;6.13;;
351;SDS011;164;50.784;6.496;2023-09-30T04:15:26;7.30;;;5.18;;
351;SDS011;164;50.784;6.496;2023-09-30T04:17:53;8.27;;;5.95;;
351;SDS011;164;50.784;6.496;2023-09-30T04:20:20;10.70;;;5.35;;
351;SDS011;164;50.784;6.496;2023-09-30T04:22:48;9.20;;;6.95;;
351;SDS011;164;50.784;6.496;2023-09-30T04:25:16;6.50;;;5.45;;
351;SDS011;164;50.784;6.496;2023-09-30T04:27:44;7.57;;;5.75;;
351;SDS011;164;50.784;6.496;2023-09-30T04:30:13;8.30;;;5.65;;
351;SDS011;164;50.784;6.496;2023-09-30T04:32:42;8.68;;;6.07;;
351;SDS011;164;50.784;6.496;2023-09-30T04:35:09;8.40;;;5.82;;
351;SDS011;164;50.784;6.496;2023-09-30T04:37:37;6.88;;;5.90;;
351;SDS011;164;50.784;6.496;2023-09-30T04:40:04;7.50;;;5.85;;
351;SDS011;164;50.784;6.496;2023-09-30T04:42:40;7.15;;;5.13;;
351;SDS011;164;50.784;6.496;2023-09-30T04:45:09;8.50;;;7.38;;
351;SDS011;164;50.784;6.496;2023-09-30T04:47:37;7.35;;;5.95;;
351;SDS011;164;50.784;6.496;2023-09-30T04:50:07;8.65;;;6.03;;
351;SDS011;164;50.784;6.496;2023-09-30T04:52:34;6.07;;;5.50;;
351;SDS011;164;50.784;6.496;2023-09-30T04:55:01;6.25;;;4.93;;
351;SDS011;164;50.784;6.496;2023-09-30T04:57:29;9.00;;;6.28;;
351;SDS011;164;50.784;6.496;2023-09-30T04:59:57;8.48;;;5.38;;
351;SDS011;164;50.784;6.496;2023-09-30T05:02:24;6.43;;;4.80;;
351;SDS011;164;50.784;6.496;2023-09-30T05:04:51;9.07;;;6.05;;
351;SDS011;164;50.784;6.496;2023-09-30T05:07:20;7.13;;;4.60;;
351;SDS011;164;50.784;6.496;2023-09-30T05:09:47;9.73;;;6.82;;
351;SDS011;164;50.784;6.496;2023-09-30T05:12:15;6.82;;;5.53;;
351;SDS011;164;50.784;6.496;2023-09-30T05:14:42;8.07;;;6.03;;
351;SDS011;164;50.784;6.496;2023-09-30T05:17:09;8.10;;;5.53;;
351;SDS011;164;50.784;6.496;2023-09-30T05:19:37;6.50;;;4.50;;
351;SDS011;164;50.784;6.496;2023-09-30T05:22:04;7.35;;;5.53;;
351;SDS011;164;50.784;6.496;2023-09-30T05:24:33;9.52;;;6.28;;
351;SDS011;164;50.784;6.496;2023-09-30T05:27:00;8.68;;;6.55;;
351;SDS011;164;50.784;6.496;2023-09-30T05:29:28;8.27;;;5.10;;
351;SDS011;164;50.784;6.496;2023-09-30T05:31:58;7.00;;;5.05;;
351;SDS011;164;50.784;6.496;2023-09-30T05:34:26;6.18;;;4.80;;
351;SDS011;164;50.784;6.496;2023-09-30T05:36:53;9.20;;;6.43;;
351;SDS011;164;50.784;6.496;2023-09-30T05:39:20;7.65;;;5.47;;
351;SDS011;164;50.784;6.496;2023-09-30T05:41:49;6.75;;;5.07;;
351;SDS011;164;50.784;6.496;2023-09-30T05:44:16;6.80;;;4.45;;
351;SDS011;164;50.784;6.496;2023-09-30T05:46:43;6.80;;;5.32;;
351;SDS011;164;50.784;6.496;2023-09-30T05:49:10;5.32;;;4.50;;
351;SDS011;164;50.784;6.496;2023-09-30T05:51:39;6.30;;;4.18;;
351;SDS011;164;50.784;6.496;2023-09-30T05:54:06;6.10;;;5.32;;
351;SDS011;164;50.784;6.496;2023-09-30T05:56:35;6.38;;;5.32;;
351;SDS011;164;50.784;6.496;2023-09-30T05:59:04;5.93;;;4.72;;
351;SDS011;164;50.784;6.496;2023-09-30T06:01:32;6.15;;;4.03;;
351;SDS011;164;50.784;6.496;2023-09-30T06:03:59;6.50;;;5.10;;
351;SDS011;164;50.784;6.496;2023-09-30T06:06:26;5.50;;;4.90;;
351;SDS011;164;50.784;6.496;2023-09-30T06:08:54;4.97;;;4.40;;
351;SDS011;164;50.784;6.496;2023-09-30T06:11:24;7.35;;;4.78;;
351;SDS011;164;50.784;6.496;2023-09-30T06:13:53;6.60;;;4.45;;
351;SDS011;164;50.784;6.496;2023-09-30T06:16:22;8.75;;;5.05;;
351;SDS011;164;50.784;6.496;2023-09-30T06:18:51;6.30;;;4.20;;
351;SDS011;164;50.784;6.496;2023-09-30T06:21:19;7.60;;;4.32;;
351;SDS011;164;50.784;6.496;2023-09-30T06:23:46;5.65;;;4.88;;
351;SDS011;164;50.784;6.496;2023-09-30T06:26:17;6.13;;;4.88;;
351;SDS011;164;50.784;6.496;2023-09-30T06:28:46;5.78;;;4.32;;
351;SDS011;164;50.784;6.496;2023-09-30T06:31:13;5.40;;;4.18;;
351;SDS011;164;50.784;6.496;2023-09-30T06:33:43;4.35;;;3.83;;
351;SDS011;164;50.784;6.496;2023-09-30T06:36:11;5.97;;;3.97;;
351;SDS011;164;50.784;6.496;2023-09-30T06:38:39;4.55;;;3.85;;
351;SDS011;164;50.784;6.496;2023-09-30T06:41:07;3.92;;;3.40;;
351;SDS011;164;50.784;6.496;2023-09-30T06:43:35;5.78;;;4.43;;
351;SDS011;164;50.784;6.496;2023-09-30T06:46:05;5.50;;;3.67;;
351;SDS011;164;50.784;6.496;2023-09-30T06:48:34;4.88;;;3.80;;
351;SDS011;164;50.784;6.496;2023-09-30T06:51:02;5.43;;;3.75;;
351;SDS011;164;50.784;6.496;2023-09-30T06:53:30;3.17;;;3.05;;
351;SDS011;164;50.784;6.496;2023-09-30T06:55:57;4.00;;;3.08;;
351;SDS011;164;50.784;6.496;2023-09-30T06:58:24;4.88;;;3.83;;
351;SDS011;164;50.784;6.496;2023-09-30T07:00:51;5.93;;;3.30;;
351;SDS011;164;50.784;6.496;2023-09-30T07:03:19;4.07;;;3.70;;
351;SDS011;164;50.784;6.496;2023-09-30T07:05:47;3.60;;;3.17;;
351;SDS011;164;50.784;6.496;2023-09-30T07:08:16;4.55;;;3.65;;
351;SDS011;164;50.784;6.496;2023-09-30T07:10:44;3.75;;;3.08;;
351;SDS011;164;50.784;6.496;2023-09-30T07:13:14;4.40;;;3.25;;
351;SDS011;164;50.784;6.496;2023-09-30T07:15:43;4.15;;;2.90;;
351;SDS011;164;50.784;6.496;2023-09-30T07:18:10;3.25;;;2.88;;
351;SDS011;164;50.784;6.496;2023-09-30T07:20:38;3.28;;;2.65;;
351;SDS011;164;50.784;6.496;2023-09-30T07:23:05;2.92;;;2.60;;
351;SDS011;164;50.784;6.496;2023-09-30T07:25:35;2.95;;;2.80;;
351;SDS011;164;50.784;6.496;2023-09-30T07:28:02;2.75;;;2.38;;
351;SDS011;164;50.784;6.496;2023-09-30T07:30:32;2.10;;;1.95;;
351;SDS011;164;50.784;6.496;2023-09-30T07:32:59;2.92;;;2.00;;
351;SDS011;164;50.784;6.496;2023-09-30T07:35:26;4.65;;;2.30;;
351;SDS011;164;50.784;6.496;2023-09-30T07:37:53;3.17;;;2.15;;
351;SDS011;164;50.784;6.496;2023-09-30T07:40:21;3.13;;;1.73;;
351;SDS011;164;50.784;6.496;2023-09-30T07:42:49;1.80;;;1.50;;
351;SDS011;164;50.784;6.496;2023-09-30T07:45:17;2.65;;;1.60;;
351;SDS011;164;50.784;6.496;2023-09-30T07:47:45;3.13;;;2.10;;
351;SDS011;164;50.784;6.496;2023-09-30T07:50:12;3.33;;;1.48;;
351;SDS011;164;50.784;6.496;2023-09-30T07:52:39;1.95;;;1.85;;
351;SDS011;164;50.784;6.496;2023-09-30T07:55:07;2.03;;;1.75;;
351;SDS011;164;50.784;6.496;2023-09-30T07:57:35;3.35;;;1.75;;
351;SDS011;164;50.784;6.496;2023-09-30T08:00:05;1.85;;;1.52;;
351;SDS011;164;50.784;6.496;2023-09-30T08:02:35;3.13;;;1.58;;
351;SDS011;164;50.784;6.496;2023-09-30T08:05:02;1.30;;;1.17;;
351;SDS011;164;50.784;6.496;2023-09-30T08:07:31;3.33;;;2.58;;
351;SDS011;164;50.784;6.496;2023-09-30T08:09:58;5.45;;;2.60;;
351;SDS011;164;50.784;6.496;2023-09-30T08:12:26;2.70;;;1.77;;
351;SDS011;164;50.784;6.496;2023-09-30T08:14:54;2.60;;;1.80;;
351;SDS011;164;50.784;6.496;2023-09-30T08:17:23;5.10;;;2.67;;
351;SDS011;164;50.784;6.496;2023-09-30T08:19:50;4.68;;;2.90;;
351;SDS011;164;50.784;6.496;2023-09-30T08:22:17;3.35;;;2.00;;
351;SDS011;164;50.784;6.496;2023-09-30T08:24:44;3.85;;;2.42;;
351;SDS011;164;50.784;6.496;2023-09-30T08:27:12;3.25;;;1.80;;
351;SDS011;164;50.784;6.496;2023-09-30T08:29:39;2.33;;;2.10;;
351;SDS011;164;50.784;6.496;2023-09-30T08:32:06;4.00;;;2.50;;
351;SDS011;164;50.784;6.496;2023-09-30T08:34:34;2.78;;;1.90;;
351;SDS011;164;50.784;6.496;2023-09-30T08:37:02;4.13;;;1.30;;
351;SDS011;164;50.784;6.496;2023-09-30T08:39:29;2.70;;;1.50;;
351;SDS011;164;50.784;6.496;2023-09-30T08:41:56;2.00;;;1.63;;
351;SDS011;164;50.784;6.496;2023-09-30T08:44:24;3.10;;;1.40;;
351;SDS011;164;50.784;6.496;2023-09-30T08:46:51;1.48;;;1.30;;
351;SDS011;164;50.784;6.496;2023-09-30T08:49:19;1.42;;;1.20;;
351;SDS011;164;50.784;6.496;2023-09-30T08:51:48;2.22;;;1.33;;
351;SDS011;164;50.784;6.496;2023-09-30T08:54:15;1.60;;;1.58;;
351;SDS011;164;50.784;6.496;2023-09-30T08:56:43;3.35;;;1.73;;
351;SDS011;164;50.784;6.496;2023-09-30T08:59:12;2.35;;;1.70;;
351;SDS011;164;50.784;6.496;2023-09-30T09:01:39;1.83;;;1.50;;
351;SDS011;164;50.784;6.496;2023-09-30T09:04:07;1.67;;;1.63;;
351;SDS011;164;50.784;6.496;2023-09-30T09:06:34;3.33;;;2.20;;
351;SDS011;164;50.784;6.496;2023-09-30T09:09:15;2.10;;;1.25;;
351;SDS011;164;50.784;6.496;2023-09-30T09:11:43;2.35;;;1.10;;
351;SDS011;164;50.784;6.496;2023-09-30T09:14:09;1.85;;;1.35;;
351;SDS011;164;50.784;6.496;2023-09-30T09:16:36;4.00;;;1.02;;
351;SDS011;164;50.784;6.496;2023-09-30T09:19:13;2.80;;;1.10;;
351;SDS011;164;50.784;6.496;2023-09-30T09:21:52;1.23;;;0.90;;
351;SDS011;164;50.784;6.496;2023-09-30T09:24:28;2.25;;;1.10;;
351;SDS011;164;50.784;6.496;2023-09-30T09:27:05;2.22;;;1.08;;
351;SDS011;164;50.784;6.496;2023-09-30T09:29:32;1.40;;;1.02;;
351;SDS011;164;50.784;6.496;2023-09-30T09:32:06;1.00;;;0.70;;
351;SDS011;164;50.784;6.496;2023-09-30T09:34:34;1.42;;;0.80;;
351;SDS011;164;50.784;6.496;2023-09-30T09:37:05;3.80;;;1.20;;
351;SDS011;164;50.784;6.496;2023-09-30T09:39:40;2.45;;;0.98;;
351;SDS011;164;50.784;6.496;2023-09-30T09:42:23;3.17;;;1.02;;
351;SDS011;164;50.784;6.496;2023-09-30T09:44:51;4.38;;;1.35;;
351;SDS011;164;50.784;6.496;2023-09-30T09:47:19;1.98;;;1.15;;
351;SDS011;164;50.784;6.496;2023-09-30T09:49:48;2.40;;;0.93;;
351;SDS011;164;50.784;6.496;2023-09-30T09:52:17;2.40;;;1.20;;
351;SDS011;164;50.784;6.496;2023-09-30T09:54:46;1.58;;;1.10;;
351;SDS011;164;50.784;6.496;2023-09-30T09:57:13;3.38;;;1.00;;
351;SDS011;164;50.784;6.496;2023-09-30T09:59:41;1.90;;;0.95;;
351;SDS011;164;50.784;6.496;2023-09-30T10:02:10;2.17;;;1.25;;
351;SDS011;164;50.784;6.496;2023-09-30T10:04:39;1.95;;;0.85;;
351;SDS011;164;50.784;6.496;2023-09-30T10:07:07;1.73;;;1.10;;
351;SDS011;164;50.784;6.496;2023-09-30T10:09:36;1.50;;;0.90;;
351;SDS011;164;50.784;6.496;2023-09-30T10:12:05;1.80;;;1.10;;
351;SDS011;164;50.784;6.496;2023-09-30T10:14:34;1.88;;;0.90;;
351;SDS011;164;50.784;6.496;2023-09-30T10:17:01;6.60;;;1.35;;
351;SDS011;164;50.784;6.496;2023-09-30T10:19:29;1.05;;;0.75;;
351;SDS011;164;50.784;6.496;2023-09-30T10:24:45;1.13;;;0.93;;
351;SDS011;164;50.784;6.496;2023-09-30T10:27:30;1.30;;;0.80;;
351;SDS011;164;50.784;6.496;2023-09-30T10:29:58;3.97;;;1.40;;
351;SDS011;164;50.784;6.496;2023-09-30T10:35:07;2.40;;;0.88;;
351;SDS011;164;50.784;6.496;2023-09-30T10:37:34;1.40;;;1.00;;
351;SDS011;164;50.784;6.496;2023-09-30T10:40:02;1.70;;;0.85;;
351;SDS011;164;50.784;6.496;2023-09-30T10:42:49;2.00;;;1.10;;
351;SDS011;164;50.784;6.496;2023-09-30T10:50:50;2.17;;;1.20;;
351;SDS011;164;50.784;6.496;2023-09-30T10:53:17;0.90;;;0.80;;
351;SDS011;164;50.784;6.496;2023-09-30T10:55:45;1.50;;;1.10;;
351;SDS011;164;50.784;6.496;2023-09-30T10:58:14;1.42;;;1.20;;
351;SDS011;164;50.784;6.496;2023-09-30T11:00:51;1.65;;;1.35;;
351;SDS011;164;50.784;6.496;2023-09-30T11:03:19;2.10;;;1.30;;
351;SDS011;164;50.784;6.496;2023-09-30T11:05:47;3.33;;;1.25;;
351;SDS011;164;50.784;6.496;2023-09-30T11:08:15;2.60;;;1.30;;
351;SDS011;164;50.784;6.496;2023-09-30T11:10:47;2.17;;;1.15;;
351;SDS011;164;50.784;6.496;2023-09-30T11:13:17;1.42;;;1.05;;
351;SDS011;164;50.784;6.496;2023-09-30T11:15:44;1.25;;;0.95;;
351;SDS011;164;50.784;6.496;2023-09-30T11:18:12;1.50;;;1.05;;
351;SDS011;164;50.784;6.496;2023-09-30T11:20:40;4.00;;;1.65;;
351;SDS011;164;50.784;6.496;2023-09-30T11:23:07;1.65;;;1.42;;
351;SDS011;164;50.784;6.496;2023-09-30T11:25:35;3.50;;;1.55;;
351;SDS011;164;50.784;6.496;2023-09-30T11:28:14;2.28;;;1.30;;
351;SDS011;164;50.784;6.496;2023-09-30T11:30:55;2.00;;;1.63;;
351;SDS011;164;50.784;6.496;2023-09-30T11:33:22;2.25;;;1.40;;
351;SDS011;164;50.784;6.496;2023-09-30T11:35:57;2.10;;;1.20;;
351;SDS011;164;50.784;6.496;2023-09-30T11:38:25;1.90;;;1.25;;
351;SDS011;164;50.784;6.496;2023-09-30T11:40:59;4.38;;;2.03;;
351;SDS011;164;50.784;6.496;2023-09-30T11:43:29;1.90;;;1.48;;
351;SDS011;164;50.784;6.496;2023-09-30T11:46:07;4.05;;;1.60;;
351;SDS011;164;50.784;6.496;2023-09-30T11:48:36;2.88;;;1.55;;
351;SDS011;164;50.784;6.496;2023-09-30T11:51:03;2.15;;;1.35;;
351;SDS011;164;50.784;6.496;2023-09-30T11:53:31;2.45;;;1.15;;
351;SDS011;164;50.784;6.496;2023-09-30T11:55:59;2.72;;;1.77;;
351;SDS011;164;50.784;6.496;2023-09-30T11:58:27;4.38;;;1.23;;
351;SDS011;164;50.784;6.496;2023-09-30T12:00:57;1.70;;;1.35;;
351;SDS011;164;50.784;6.496;2023-09-30T12:03:27;1.70;;;1.25;;
351;SDS011;164;50.784;6.496;2023-09-30T12:05:54;1.73;;;1.10;;
351;SDS011;164;50.784;6.496;2023-09-30T12:08:22;3.42;;;1.25;;
351;SDS011;164;50.784;6.496;2023-09-30T12:10:49;4.45;;;1.10;;
351;SDS011;164;50.784;6.496;2023-09-30T12:13:17;2.45;;;1.40;;
351;SDS011;164;50.784;6.496;2023-09-30T12:15:45;1.70;;;1.17;;
351;SDS011;164;50.784;6.496;2023-09-30T12:18:13;1.77;;;1.30;;
351;SDS011;164;50.784;6.496;2023-09-30T12:20:43;1.92;;;1.42;;
351;SDS011;164;50.784;6.496;2023-09-30T12:23:11;1.55;;;1.20;;
351;SDS011;164;50.784;6.496;2023-09-30T12:25:38;1.73;;;1.23;;
351;SDS011;164;50.784;6.496;2023-09-30T12:28:05;2.33;;;1.38;;
351;SDS011;164;50.784;6.496;2023-09-30T12:30:33;2.10;;;1.13;;
351;SDS011;164;50.784;6.496;2023-09-30T12:33:00;1.95;;;1.30;;
351;SDS011;164;50.784;6.496;2023-09-30T12:35:27;1.85;;;1.10;;
351;SDS011;164;50.784;6.496;2023-09-30T12:37:56;1.80;;;1.33;;
351;SDS011;164;50.784;6.496;2023-09-30T12:40:23;2.10;;;1.20;;
351;SDS011;164;50.784;6.496;2023-09-30T12:42:50;6.07;;;1.90;;
351;SDS011;164;50.784;6.496;2023-09-30T12:45:17;2.40;;;1.90;;
351;SDS011;164;50.784;6.496;2023-09-30T12:47:44;3.22;;;1.98;;
351;SDS011;164;50.784;6.496;2023-09-30T12:50:13;3.75;;;1.35;;
351;SDS011;164;50.784;6.496;2023-09-30T12:52:40;2.80;;;1.15;;
351;SDS011;164;50.784;6.496;2023-09-30T12:55:09;4.03;;;1.50;;
351;SDS011;164;50.784;6.496;2023-09-30T12:57:36;2.78;;;1.70;;
351;SDS011;164;50.784;6.496;2023-09-30T13:00:04;3.50;;;1.35;;
351;SDS011;164;50.784;6.496;2023-09-30T13:02:34;1.70;;;1.30;;
351;SDS011;164;50.784;6.496;2023-09-30T13:05:01;1.60;;;1.10;;
351;SDS011;164;50.784;6.496;2023-09-30T13:07:30;1.88;;;1.38;;
351;SDS011;164;50.784;6.496;2023-09-30T13:09:57;4.25;;;1.45;;
351;SDS011;164;50.784;6.496;2023-09-30T13:12:26;2.50;;;1.60;;
351;SDS011;164;50.784;6.496;2023-09-30T13:14:54;2.22;;;1.90;;
351;SDS011;164;50.784;6.496;2023-09-30T13:17:21;2.10;;;1.27;;
351;SDS011;164;50.784;6.496;2023-09-30T13:19:49;3.15;;;1.60;;
351;SDS011;164;50.784;6.496;2023-09-30T13:22:17;1.85;;;0.88;;
351;SDS011;164;50.784;6.496;2023-09-30T13:24:44;2.15;;;1.52;;
351;SDS011;164;50.784;6.496;2023-09-30T13:27:11;1.63;;;0.75;;
351;SDS011;164;50.784;6.496;2023-09-30T13:29:42;3.08;;;2.25;;
351;SDS011;164;50.784;6.496;2023-09-30T13:32:09;2.47;;;1.13;;
351;SDS011;164;50.784;6.496;2023-09-30T13:34:37;2.60;;;1.58;;
351;SDS011;164;50.784;6.496;2023-09-30T13:37:05;3.63;;;2.00;;
351;SDS011;164;50.784;6.496;2023-09-30T13:39:32;2.83;;;1.50;;
351;SDS011;164;50.784;6.496;2023-09-30T13:42:00;3.42;;;1.85;;
351;SDS011;164;50.784;6.496;2023-09-30T13:44:27;1.67;;;1.58;;
351;SDS011;164;50.784;6.496;2023-09-30T13:46:56;2.45;;;1.88;;
351;SDS011;164;50.784;6.496;2023-09-30T13:49:23;2.40;;;2.15;;
351;SDS011;164;50.784;6.496;2023-09-30T13:51:50;1.92;;;1.38;;
351;SDS011;164;50.784;6.496;2023-09-30T13:54:17;2.78;;;1.40;;
351;SDS011;164;50.784;6.496;2023-09-30T13:56:44;1.67;;;1.15;;
351;SDS011;164;50.784;6.496;2023-09-30T13:59:12;3.00;;;1.65;;
351;SDS011;164;50.784;6.496;2023-09-30T14:01:39;2.40;;;1.58;;
351;SDS011;164;50.784;6.496;2023-09-30T14:04:08;2.70;;;1.35;;
351;SDS011;164;50.784;6.496;2023-09-30T14:06:35;1.83;;;1.25;;
351;SDS011;164;50.784;6.496;2023-09-30T14:09:03;2.92;;;1.27;;
351;SDS011;164;50.784;6.496;2023-09-30T14:11:30;3.47;;;1.65;;
351;SDS011;164;50.784;6.496;2023-09-30T14:13:57;2.78;;;1.58;;
351;SDS011;164;50.784;6.496;2023-09-30T14:16:25;3.25;;;1.40;;
351;SDS011;164;50.784;6.496;2023-09-30T14:18:52;2.88;;;1.77;;
351;SDS011;164;50.784;6.496;2023-09-30T14:21:21;3.03;;;1.23;;
351;SDS011;164;50.784;6.496;2023-09-30T14:23:49;1.73;;;1.40;;
351;SDS011;164;50.784;6.496;2023-09-30T14:26:16;2.17;;;0.90;;
351;SDS011;164;50.784;6.496;2023-09-30T14:28:43;1.38;;;1.05;;
351;SDS011;164;50.784;6.496;2023-09-30T14:31:10;1.30;;;0.90;;
351;SDS011;164;50.784;6.496;2023-09-30T14:33:39;2.20;;;1.67;;
351;SDS011;164;50.784;6.496;2023-09-30T14:36:06;2.92;;;1.70;;
351;SDS011;164;50.784;6.496;2023-09-30T14:38:35;2.47;;;1.20;;
351;SDS011;164;50.784;6.496;2023-09-30T14:41:05;1.92;;;0.90;;
351;SDS011;164;50.784;6.496;2023-09-30T14:43:33;2.30;;;1.25;;
351;SDS011;164;50.784;6.496;2023-09-30T14:46:01;3.35;;;1.20;;
351;SDS011;164;50.784;6.496;2023-09-30T14:48:28;1.33;;;1.17;;
351;SDS011;164;50.784;6.496;2023-09-30T14:50:55;1.23;;;1.23;;
351;SDS011;164;50.784;6.496;2023-09-30T14:53:22;1.13;;;0.82;;
351;SDS011;164;50.784;6.496;2023-09-30T14:55:51;2.63;;;1.67;;
351;SDS011;164;50.784;6.496;2023-09-30T14:58:18;2.47;;;1.75;;
351;SDS011;164;50.784;6.496;2023-09-30T15:00:46;2.55;;;1.50;;
351;SDS011;164;50.784;6.496;2023-09-30T15:03:13;3.92;;;1.40;;
351;SDS011;164;50.784;6.496;2023-09-30T15:05:41;4.95;;;1.15;;
351;SDS011;164;50.784;6.496;2023-09-30T15:08:08;3.15;;;1.60;;
351;SDS011;164;50.784;6.496;2023-09-30T15:10:35;2.00;;;1.58;;
351;SDS011;164;50.784;6.496;2023-09-30T15:13:04;2.35;;;1.05;;
351;SDS011;164;50.784;6.496;2023-09-30T15:15:35;2.80;;;1.27;;
351;SDS011;164;50.784;6.496;2023-09-30T15:18:02;1.85;;;1.10;;
351;SDS011;164;50.784;6.496;2023-09-30T15:20:30;1.45;;;0.90;;
351;SDS011;164;50.784;6.496;2023-09-30T15:22:57;1.67;;;1.10;;
351;SDS011;164;50.784;6.496;2023-09-30T15:25:25;4.05;;;1.48;;
351;SDS011;164;50.784;6.496;2023-09-30T15:27:52;2.55;;;1.17;;
351;SDS011;164;50.784;6.496;2023-09-30T15:30:21;1.42;;;0.90;;
351;SDS011;164;50.784;6.496;2023-09-30T15:32:48;2.65;;;1.08;;
351;SDS011;164;50.784;6.496;2023-09-30T15:35:15;1.95;;;1.15;;
351;SDS011;164;50.784;6.496;2023-09-30T15:37:43;2.08;;;1.55;;
351;SDS011;164;50.784;6.496;2023-09-30T15:40:10;1.45;;;1.38;;
351;SDS011;164;50.784;6.496;2023-09-30T15:42:42;2.05;;;1.50;;
351;SDS011;164;50.784;6.496;2023-09-30T15:45:10;3.03;;;1.27;;
351;SDS011;164;50.784;6.496;2023-09-30T15:47:39;3.13;;;1.40;;
351;SDS011;164;50.784;6.496;2023-09-30T15:50:06;2.60;;;1.20;;
351;SDS011;164;50.784;6.496;2023-09-30T15:52:34;2.42;;;1.70;;
351;SDS011;164;50.784;6.496;2023-09-30T15:55:01;1.98;;;1.38;;
351;SDS011;164;50.784;6.496;2023-09-30T15:57:29;1.08;;;0.88;;
351;SDS011;164;50.784;6.496;2023-09-30T15:59:56;1.67;;;1.35;;
351;SDS011;164;50.784;6.496;2023-09-30T16:02:24;3.13;;;1.48;;